Time;durP1;ratioP1;P1;durP2;ratioP2;P2;SDS_P1;SDS_P2;PMS_P1;PMS_P2;Temp;Humidity;BMP_temperature;BMP_pressure;BME280_temperature;BME280_humidity;BME280_pressure;Samples;Min_cycle;Max_cycle;Signal;HPM_P1;HPM_P2
2022/09/08 00:01:23;;;;;;;0.30;0.30;;;;;;;12.86;62.94;100981.50;5111256;28;20019;-73
2022/09/08 00:03:50;;;;;;;0.30;0.30;;;;;;;12.83;62.69;100982.34;5129427;28;20023;-73
2022/09/08 00:06:17;;;;;;;0.30;0.30;;;;;;;12.84;63.11;100983.22;5111011;28;20122;-73
2022/09/08 00:08:45;;;;;;;0.30;0.30;;;;;;;12.83;63.04;100981.47;5129312;28;20073;-73
2022/09/08 00:11:12;;;;;;;0.30;0.30;;;;;;;12.82;63.15;100977.16;5111014;28;20031;-73
2022/09/08 00:13:40;;;;;;;0.30;0.30;;;;;;;12.82;63.42;100977.16;5129421;28;20043;-74
2022/09/08 00:16:07;;;;;;;0.30;0.30;;;;;;;12.84;63.97;100973.66;5129319;28;20023;-73
2022/09/08 00:18:34;;;;;;;0.30;0.30;;;;;;;12.77;63.72;100977.19;5110936;28;20027;-72
2022/09/08 00:21:00;;;;;;;0.30;0.30;;;;;;;12.76;64.06;100981.53;5128325;28;20028;-73
2022/09/08 00:23:25;;;;;;;0.30;0.30;;;;;;;12.78;64.13;100978.91;5127873;28;20027;-73
2022/09/08 00:25:51;;;;;;;0.50;0.50;;;;;;;12.76;64.43;100976.31;5127697;28;20027;-73
2022/09/08 00:28:16;;;;;;;0.30;0.30;;;;;;;12.73;64.52;100981.56;5128520;28;20035;-72
2022/09/08 00:30:41;;;;;;;0.30;0.30;;;;;;;12.73;64.61;100965.09;5129051;28;20023;-73
2022/09/08 00:33:07;;;;;;;0.40;0.40;;;;;;;12.71;64.92;100969.44;5128975;28;20085;-73
2022/09/08 00:35:32;;;;;;;0.30;0.30;;;;;;;12.70;65.00;100975.53;5128343;28;20026;-73
2022/09/08 00:37:57;;;;;;;0.30;0.30;;;;;;;12.61;64.98;100982.53;5128837;28;20024;-73
2022/09/08 00:40:25;;;;;;;0.30;0.30;;;;;;;12.57;64.91;100954.78;5128418;28;20035;-74
2022/09/08 00:43:02;;;;;;;0.30;0.30;;;;;;;12.66;65.50;100969.47;5128939;28;20026;-72
2022/09/08 00:45:37;;;;;;;0.30;0.30;;;;;;;12.54;65.50;100953.97;5128574;28;20027;-73
2022/09/08 00:48:12;;;;;;;0.57;0.57;;;;;;;12.60;66.05;100954.75;5128466;28;20052;-75
2022/09/08 00:50:38;;;;;;;0.40;0.40;;;;;;;12.59;66.59;100973.00;5128625;28;20019;-75
2022/09/08 00:53:09;;;;;;;0.30;0.30;;;;;;;12.54;66.63;100969.59;5128360;28;20024;-74
2022/09/08 00:55:37;;;;;;;0.40;0.40;;;;;;;12.48;66.63;100962.66;5128288;28;20027;-74
2022/09/08 00:58:03;;;;;;;0.30;0.30;;;;;;;12.52;66.99;100964.38;5128645;28;20059;-75
2022/09/08 01:00:29;;;;;;;0.30;0.30;;;;;;;12.42;67.40;100960.97;5128108;28;20110;-74
2022/09/08 01:02:54;;;;;;;0.30;0.30;;;;;;;12.44;67.39;100958.38;5128475;28;20020;-73
2022/09/08 01:05:24;;;;;;;0.30;0.30;;;;;;;12.46;67.71;100967.88;5127999;28;20572;-74
2022/09/08 01:14:11;;;;;;;0.30;0.30;;;;;;;12.41;68.43;100959.25;5128270;28;20394;-75
2022/09/08 01:16:40;;;;;;;0.30;0.30;;;;;;;12.43;68.83;100961.84;5128031;28;20047;-75
2022/09/08 01:19:20;;;;;;;0.30;0.30;;;;;;;12.41;68.84;100968.81;5128024;28;20075;-74
2022/09/08 01:21:57;;;;;;;0.30;0.30;;;;;;;12.43;69.17;100962.69;5128002;28;20040;-75
2022/09/08 01:24:33;;;;;;;0.30;0.30;;;;;;;12.44;69.23;100971.38;5109795;28;20024;-75
2022/09/08 01:27:11;;;;;;;0.30;0.30;;;;;;;12.43;69.40;100961.84;5127893;28;20615;-74
2022/09/08 01:29:40;;;;;;;0.38;0.38;;;;;;;12.42;69.66;100965.31;5127900;28;20042;-75
2022/09/08 01:32:09;;;;;;;0.30;0.30;;;;;;;12.38;69.74;100964.50;5127714;28;20023;-75
2022/09/08 01:34:42;;;;;;;0.30;0.30;;;;;;;12.42;69.69;100967.91;5127767;28;20030;-75
2022/09/08 01:37:08;;;;;;;0.30;0.30;;;;;;;12.36;69.85;100966.22;5127688;28;20031;-73
2022/09/08 01:39:33;;;;;;;0.30;0.30;;;;;;;12.34;69.71;100945.41;5127561;28;20047;-76
2022/09/08 01:41:59;;;;;;;0.30;0.30;;;;;;;12.35;69.92;100967.97;5109276;28;20043;-74
2022/09/08 01:44:26;;;;;;;0.30;0.30;;;;;;;12.35;69.95;100949.75;5127632;28;20026;-74
2022/09/08 01:46:51;;;;;;;0.60;0.60;;;;;;;12.37;70.36;100962.75;5108808;28;20055;-75
2022/09/08 01:49:16;;;;;;;0.30;0.30;;;;;;;12.33;70.32;100958.44;5127593;28;20027;-74
2022/09/08 01:51:42;;;;;;;0.30;0.30;;;;;;;12.31;70.46;100952.38;5126629;28;20054;-74
2022/09/08 01:54:08;;;;;;;0.30;0.30;;;;;;;12.30;70.50;100961.91;5108824;28;20030;-74
2022/09/08 01:56:35;;;;;;;0.30;0.30;;;;;;;12.22;70.41;100937.69;5127305;28;20015;-74
2022/09/08 01:59:00;;;;;;;0.30;0.30;;;;;;;12.26;70.82;100952.41;5127291;28;20410;-76
2022/09/08 02:01:26;;;;;;;0.30;0.30;;;;;;;12.33;70.70;100940.22;5127186;28;20047;-75
2022/09/08 02:03:51;;;;;;;0.30;0.30;;;;;;;12.27;70.98;100943.72;5127253;28;20020;-76
2022/09/08 02:06:16;;;;;;;0.30;0.30;;;;;;;12.21;70.94;100954.16;5126812;28;20144;-74
2022/09/08 02:08:43;;;;;;;0.30;0.30;;;;;;;12.18;71.32;100935.97;5127010;28;20031;-76
2022/09/08 02:11:09;;;;;;;0.30;0.30;;;;;;;12.23;71.08;100949.81;5127222;28;20068;-74
2022/09/08 02:13:35;;;;;;;0.30;0.30;;;;;;;12.13;71.38;100920.38;5127009;28;20126;-74
2022/09/08 02:16:09;;;;;;;0.30;0.30;;;;;;;12.17;71.40;100955.06;5108452;28;20070;-74
2022/09/08 02:18:35;;;;;;;0.30;0.30;;;;;;;12.19;71.33;100940.31;5126888;28;20015;-73
2022/09/08 02:21:13;;;;;;;0.30;0.30;;;;;;;12.12;71.64;100942.09;5108615;28;20448;-76
2022/09/08 02:23:41;;;;;;;0.30;0.30;;;;;;;12.09;71.61;100932.53;5108239;28;20019;-74
2022/09/08 02:26:12;;;;;;;0.30;0.30;;;;;;;12.05;71.71;100946.44;5126644;28;20072;-74
2022/09/08 02:28:37;;;;;;;0.30;0.30;;;;;;;12.11;71.54;100946.41;5108328;28;20052;-75
2022/09/08 02:31:03;;;;;;;0.50;0.50;;;;;;;12.10;71.46;100934.28;5126668;28;20032;-75
2022/09/08 02:33:30;;;;;;;0.30;0.30;;;;;;;12.02;71.83;100942.13;5126674;28;20421;-76
2022/09/08 02:35:56;;;;;;;0.30;0.30;;;;;;;12.02;72.00;100942.13;5126493;28;20024;-74
2022/09/08 02:38:23;;;;;;;0.30;0.30;;;;;;;11.96;72.09;100939.56;5107884;28;20052;-75
2022/09/08 02:40:48;;;;;;;0.30;0.30;;;;;;;11.95;72.16;100931.75;5126572;28;20023;-75
2022/09/08 02:43:13;;;;;;;0.30;0.30;;;;;;;11.95;72.09;100942.16;5126457;28;20040;-72
2022/09/08 02:45:39;;;;;;;0.35;0.35;;;;;;;11.87;72.36;100945.66;5126222;28;20031;-72
2022/09/08 02:48:05;;;;;;;0.30;0.30;;;;;;;11.88;72.29;100936.13;5126288;28;20119;-71
2022/09/08 02:50:30;;;;;;;0.30;0.30;;;;;;;11.91;72.13;100923.09;5126335;28;20555;-72
2022/09/08 02:52:56;;;;;;;0.30;0.30;;;;;;;11.87;72.13;100914.44;5107881;28;20107;-73
2022/09/08 02:55:23;;;;;;;0.60;0.60;;;;;;;11.82;71.95;100920.56;5126276;28;20027;-70
2022/09/08 02:57:52;;;;;;;0.30;0.30;;;;;;;11.95;71.99;100923.94;5126330;28;20073;-72
2022/09/08 03:00:18;;;;;;;0.30;0.30;;;;;;;11.86;72.06;100923.13;5126223;28;20028;-74
2022/09/08 03:02:43;;;;;;;0.30;0.30;;;;;;;11.77;72.54;100942.22;5126177;28;20395;-71
2022/09/08 03:05:09;;;;;;;0.30;0.30;;;;;;;11.86;72.25;100941.34;5126001;28;20020;-72
2022/09/08 03:07:36;;;;;;;0.35;0.35;;;;;;;11.76;72.09;100935.31;5126199;28;20047;-72
2022/09/08 03:10:04;;;;;;;0.40;0.40;;;;;;;11.60;72.38;100920.63;5126242;28;20019;-71
2022/09/08 03:12:30;;;;;;;0.30;0.30;;;;;;;11.52;72.41;100915.47;5107674;28;20023;-72
2022/09/08 03:14:55;;;;;;;0.30;0.30;;;;;;;11.71;72.32;100926.66;5126167;28;20030;-72
2022/09/08 03:17:21;;;;;;;0.30;0.30;;;;;;;11.60;72.37;100934.50;5107486;28;20054;-72
2022/09/08 03:19:46;;;;;;;0.35;0.35;;;;;;;11.63;72.39;100944.91;5126053;28;20023;-73
2022/09/08 03:22:12;;;;;;;0.30;0.30;;;;;;;11.59;72.32;100922.38;5126009;28;20050;-72
2022/09/08 03:24:37;;;;;;;0.30;0.30;;;;;;;11.62;72.18;100931.91;5107576;28;20043;-74
2022/09/08 03:27:03;;;;;;;0.30;0.30;;;;;;;11.59;72.29;100940.59;5125368;28;20083;-74
2022/09/08 03:29:29;;;;;;;0.30;0.30;;;;;;;11.55;72.29;100933.66;5124758;28;20031;-73
2022/09/08 03:31:55;;;;;;;0.30;0.30;;;;;;;11.59;72.26;100935.41;5125185;28;20088;-73
2022/09/08 03:34:20;;;;;;;0.30;0.30;;;;;;;11.52;72.36;100938.88;5125763;28;20026;-74
2022/09/08 03:36:46;;;;;;;0.30;0.30;;;;;;;11.46;72.30;100931.97;5125658;28;20035;-72
2022/09/08 03:39:11;;;;;;;0.30;0.30;;;;;;;11.56;72.09;100930.19;5107174;28;20023;-73
2022/09/08 03:41:37;;;;;;;0.30;0.30;;;;;;;11.57;71.85;100944.94;5125838;28;20030;-73
2022/09/08 03:44:02;;;;;;;0.40;0.40;;;;;;;11.45;71.88;100926.78;5107365;28;20020;-74
2022/09/08 03:46:27;;;;;;;0.30;0.30;;;;;;;11.42;72.13;100921.59;5125602;28;20082;-73
2022/09/08 03:48:53;;;;;;;0.30;0.30;;;;;;;11.45;71.84;100934.56;5125806;28;20020;-73
2022/09/08 03:51:22;;;;;;;0.40;0.40;;;;;;;11.49;71.90;100924.16;5125748;28;20024;-73
2022/09/08 03:53:48;;;;;;;0.30;0.30;;;;;;;11.46;71.78;100928.50;5125659;28;20106;-72
2022/09/08 03:56:14;;;;;;;0.30;0.30;;;;;;;11.43;71.74;100926.78;5107394;28;20042;-73
2022/09/08 03:58:41;;;;;;;0.30;0.30;;;;;;;11.43;71.90;100923.31;5125711;28;20351;-72
2022/09/08 04:01:16;;;;;;;0.30;0.30;;;;;;;11.42;71.71;100927.66;5107308;28;20039;-72
2022/09/08 04:03:42;;;;;;;0.30;0.30;;;;;;;11.40;71.49;100932.88;5125491;28;20100;-71
2022/09/08 04:06:07;;;;;;;0.30;0.30;;;;;;;11.39;71.74;100925.03;5125230;28;20031;-72
2022/09/08 04:08:33;;;;;;;0.30;0.30;;;;;;;11.43;71.73;100933.72;5125480;28;20024;-72
2022/09/08 04:10:58;;;;;;;0.30;0.30;;;;;;;11.44;71.61;100930.25;5125634;28;20100;-72
2022/09/08 04:13:24;;;;;;;0.30;0.30;;;;;;;11.40;71.59;100943.28;5107449;28;20080;-74
2022/09/08 04:15:49;;;;;;;0.30;0.30;;;;;;;11.36;71.66;100945.84;5110772;28;20019;-72
2022/09/08 04:18:15;;;;;;;0.30;0.30;;;;;;;11.48;71.29;100925.03;5129433;28;20031;-76
2022/09/08 04:20:41;;;;;;;0.40;0.40;;;;;;;11.48;71.35;100944.97;5129373;28;20015;-72
2022/09/08 04:23:07;;;;;;;0.40;0.40;;;;;;;11.43;71.41;100934.59;5129325;28;20026;-75
2022/09/08 04:25:33;;;;;;;0.30;0.30;;;;;;;11.47;71.26;100938.03;5110510;28;20024;-72
2022/09/08 04:27:58;;;;;;;0.30;0.30;;;;;;;11.45;71.22;100931.97;5129122;28;20451;-73
2022/09/08 04:30:23;;;;;;;0.30;0.30;;;;;;;11.46;71.44;100938.91;5129026;28;20030;-72
2022/09/08 04:32:49;;;;;;;0.30;0.30;;;;;;;11.53;71.03;100938.03;5110443;28;20027;-73
2022/09/08 04:35:14;;;;;;;0.30;0.30;;;;;;;11.61;70.98;100924.97;5128907;28;20463;-73
2022/09/08 04:37:40;;;;;;;0.30;0.30;;;;;;;11.57;71.54;100933.66;5128913;28;20024;-75
2022/09/08 04:40:07;;;;;;;0.40;0.40;;;;;;;11.75;71.06;100944.00;5128674;28;20051;-75
2022/09/08 04:42:33;;;;;;;0.30;0.30;;;;;;;11.78;70.59;100930.09;5129025;28;20015;-78
2022/09/08 04:44:59;;;;;;;0.30;0.30;;;;;;;12.03;69.61;100945.56;5128886;28;20030;-79
2022/09/08 04:47:25;;;;;;;0.30;0.30;;;;;;;12.09;69.76;100929.09;5128511;28;20047;-77
2022/09/08 04:49:52;;;;;;;0.30;0.30;;;;;;;12.13;69.44;100920.38;5128824;28;20065;-70
2022/09/08 04:52:20;;;;;;;0.32;0.32;;;;;;;12.23;69.19;100929.00;5128722;28;20020;-78
2022/09/08 04:54:46;;;;;;;0.30;0.30;;;;;;;12.24;68.75;100952.41;5128787;28;20024;-79
2022/09/08 04:57:11;;;;;;;0.30;0.30;;;;;;;12.31;68.16;100945.44;5128503;28;20093;-78
2022/09/08 04:59:40;;;;;;;0.30;0.30;;;;;;;12.30;68.09;100933.28;5110402;28;20038;-79
2022/09/08 05:02:05;;;;;;;0.30;0.30;;;;;;;12.49;67.66;100933.16;5110235;28;20015;-77
2022/09/08 05:04:30;;;;;;;0.30;0.30;;;;;;;12.52;67.40;100930.53;5110380;28;20088;-77
2022/09/08 05:06:56;;;;;;;0.73;0.73;;;;;;;12.52;66.89;100943.56;5128288;28;20457;-73
2022/09/08 05:09:21;;;;;;;0.40;0.40;;;;;;;12.46;66.42;100954.03;5128188;28;20019;-77
2022/09/08 05:11:46;;;;;;;0.38;0.38;;;;;;;12.31;66.83;100941.97;5109812;28;20027;-67
2022/09/08 05:14:12;;;;;;;0.30;0.30;;;;;;;12.33;66.51;100946.28;5128081;28;20024;-77
2022/09/08 05:16:37;;;;;;;0.30;0.30;;;;;;;12.31;66.95;100955.84;5128059;28;20031;-72
2022/09/08 05:19:05;;;;;;;0.30;0.30;;;;;;;12.39;66.52;100980.09;5127935;28;20031;-77
2022/09/08 05:21:33;;;;;;;0.30;0.30;;;;;;;12.27;66.73;100957.59;5128085;28;20015;-78
2022/09/08 05:24:00;;;;;;;0.30;0.30;;;;;;;12.44;66.70;100963.56;5109363;28;20023;-77
2022/09/08 05:26:26;;;;;;;0.40;0.40;;;;;;;12.39;66.67;100961.00;5127368;28;20471;-76
2022/09/08 05:28:52;;;;;;;0.45;0.45;;;;;;;12.35;66.97;100954.94;5127715;28;20054;-75
2022/09/08 05:31:21;;;;;;;0.38;0.38;;;;;;;12.64;66.74;100951.25;5109388;28;20034;-76
2022/09/08 05:33:46;;;;;;;0.30;0.30;;;;;;;12.83;66.02;100958.91;5127875;28;20019;-75
2022/09/08 05:36:18;;;;;;;0.30;0.30;;;;;;;13.10;64.84;100969.09;5127292;28;20031;-75
2022/09/08 05:38:44;;;;;;;0.30;0.30;;;;;;;13.06;64.77;100964.78;5127202;28;20058;-76
2022/09/08 05:41:11;;;;;;;0.30;0.30;;;;;;;13.12;64.09;100967.31;5128090;28;20052;-75
2022/09/08 05:43:37;;;;;;;0.30;0.30;;;;;;;13.19;63.71;100968.13;5109147;28;20042;-75
2022/09/08 05:46:04;;;;;;;0.30;0.30;;;;;;;13.10;64.26;100963.91;5127316;28;20019;-74
2022/09/08 05:48:30;;;;;;;0.30;0.30;;;;;;;13.12;63.49;100983.84;5109347;28;20024;-76
2022/09/08 05:50:55;;;;;;;0.30;0.30;;;;;;;13.02;62.87;100961.34;5127679;28;20049;-75
2022/09/08 05:53:21;;;;;;;0.30;0.30;;;;;;;12.94;63.20;100973.59;5127607;28;20024;-75
2022/09/08 05:56:01;;;;;;;0.30;0.30;;;;;;;12.86;63.30;100960.66;5109000;28;20027;-76
2022/09/08 05:58:28;;;;;;;0.30;0.30;;;;;;;12.86;63.09;100990.16;5109347;28;20041;-77
2022/09/08 06:01:08;;;;;;;0.30;0.30;;;;;;;12.77;62.84;100969.38;5127812;28;20031;-75
2022/09/08 06:03:36;;;;;;;0.30;0.30;;;;;;;12.75;63.03;100978.94;5127446;28;20027;-75
2022/09/08 06:06:11;;;;;;;0.30;0.30;;;;;;;12.60;63.10;100993.81;5109355;28;20031;-78
2022/09/08 06:08:38;;;;;;;0.30;0.30;;;;;;;12.76;62.28;100976.31;5127021;28;20293;-75
2022/09/08 06:11:05;;;;;;;0.30;0.30;;;;;;;12.75;63.02;100984.16;5127354;28;20486;-75
2022/09/08 06:13:31;;;;;;;0.30;0.30;;;;;;;13.01;62.47;100985.69;5108912;28;20368;-74
2022/09/08 06:16:08;;;;;;;0.30;0.30;;;;;;;13.41;60.75;100992.25;5127128;28;20387;-76
2022/09/08 06:18:36;;;;;;;0.30;0.30;;;;;;;13.55;60.35;100989.50;5127320;28;20019;-74
2022/09/08 06:21:26;;;;;;;0.30;0.30;;;;;;;13.67;60.54;101006.78;5127153;28;20034;-75
2022/09/08 06:23:53;;;;;;;0.40;0.40;;;;;;;13.89;59.83;101014.34;5116749;28;20042;-77
2022/09/08 06:26:30;;;;;;;0.30;0.30;;;;;;;14.12;59.29;100992.28;5127135;28;20036;-74
2022/09/08 06:29:08;;;;;;;0.30;0.30;;;;;;;14.45;57.82;100991.81;5128120;28;20011;-75
2022/09/08 06:31:42;;;;;;;0.30;0.30;;;;;;;14.38;58.01;100994.53;5127268;28;20024;-75
2022/09/08 06:34:20;;;;;;;0.30;0.30;;;;;;;14.47;57.52;100990.88;5127335;28;20023;-74
2022/09/08 06:36:51;;;;;;;0.30;0.30;;;;;;;14.60;57.05;100993.34;5126854;28;20020;-74
2022/09/08 06:39:24;;;;;;;0.40;0.40;;;;;;;14.76;56.69;100988.69;5126830;28;20023;-74
2022/09/08 06:41:56;;;;;;;0.20;0.20;;;;;;;14.82;56.21;100990.41;5127098;28;20031;-73
2022/09/08 06:44:26;;;;;;;0.30;0.30;;;;;;;14.71;56.60;100998.38;5126792;28;20028;-75
2022/09/08 06:46:55;;;;;;;0.30;0.30;;;;;;;14.93;55.83;100975.41;5126311;28;20044;-73
2022/09/08 06:49:20;;;;;;;0.30;0.30;;;;;;;14.85;56.36;100988.59;5126096;28;20069;-74
2022/09/08 06:51:58;;;;;;;0.30;0.30;;;;;;;15.02;55.71;101005.72;5125898;28;20020;-74
2022/09/08 06:54:54;;;;;;;0.30;0.30;;;;;;;15.20;55.24;101003.69;5125725;28;20027;-72
2022/09/08 06:57:22;;;;;;;0.30;0.30;;;;;;;15.32;54.35;101007.84;5119377;28;20042;-73
2022/09/08 07:00:02;;;;;;;0.57;0.57;;;;;;;15.15;54.47;101001.16;5125608;28;20031;-75
2022/09/08 07:02:39;;;;;;;0.30;0.30;;;;;;;15.25;54.57;101001.84;5125743;28;20107;-73
2022/09/08 07:05:26;;;;;;;0.20;0.20;;;;;;;15.10;54.58;101019.53;5125837;28;20479;-74
2022/09/08 07:08:01;;;;;;;0.30;0.30;;;;;;;14.92;54.78;101007.63;5125365;28;20027;-75
2022/09/08 07:10:47;;;;;;;0.30;0.30;;;;;;;14.70;55.34;101004.47;5125576;28;20019;-74
2022/09/08 07:13:26;;;;;;;0.30;0.30;;;;;;;14.60;54.74;100993.34;5107383;28;20031;-74
2022/09/08 07:16:01;;;;;;;0.30;0.30;;;;;;;14.45;55.54;100995.31;5125366;28;20034;-73
2022/09/08 07:18:56;;;;;;;0.30;0.30;;;;;;;14.45;55.35;100999.66;5107344;28;20035;-78
2022/09/08 07:21:41;;;;;;;0.30;0.30;;;;;;;14.45;55.43;101000.53;5110810;28;20051;-72
2022/09/08 07:24:12;;;;;;;0.30;0.30;;;;;;;14.49;55.55;101001.31;5125142;28;20050;-74
2022/09/08 07:26:46;;;;;;;0.20;0.20;;;;;;;14.54;55.36;100993.41;5124521;28;20031;-73
2022/09/08 07:29:33;;;;;;;0.30;0.30;;;;;;;14.53;55.58;100996.91;5124183;28;20026;-74
2022/09/08 07:32:00;;;;;;;0.30;0.30;;;;;;;14.82;53.80;101024.38;5124830;28;20020;-73
2022/09/08 07:34:28;;;;;;;0.30;0.30;;;;;;;14.89;53.55;101005.06;5125389;28;20027;-73
2022/09/08 07:37:13;;;;;;;0.30;0.30;;;;;;;15.08;53.55;101004.78;5125007;28;20047;-73
2022/09/08 07:40:04;;;;;;;0.30;0.30;;;;;;;15.39;52.99;101013.78;5124891;28;20023;-75
2022/09/08 07:42:31;;;;;;;0.30;0.30;;;;;;;15.60;51.86;101002.94;5106693;28;20028;-74
2022/09/08 07:44:59;;;;;;;0.30;0.30;;;;;;;15.62;52.27;100992.44;5106711;28;20103;-74
2022/09/08 07:47:33;;;;;;;0.30;0.30;;;;;;;15.89;51.62;100997.13;5085425;28;1129576;-73
2022/09/08 07:50:13;;;;;;;0.30;0.30;;;;;;;15.95;51.69;100996.97;5129060;28;20035;-74
2022/09/08 07:53:02;;;;;;;0.30;0.30;;;;;;;16.20;50.96;101007.81;5129696;28;20016;-74
2022/09/08 07:55:39;;;;;;;0.30;0.30;;;;;;;16.57;49.16;101016.59;5130163;28;20024;-73
2022/09/08 07:58:10;;;;;;;0.30;0.30;;;;;;;16.58;48.23;100988.63;5111529;28;20031;-74
2022/09/08 08:00:52;;;;;;;0.40;0.40;;;;;;;16.31;48.46;101010.19;5130043;28;20033;-73
2022/09/08 08:03:38;;;;;;;0.40;0.40;;;;;;;16.26;47.91;101006.84;5129872;28;20093;-74
2022/09/08 08:06:06;;;;;;;0.30;0.30;;;;;;;15.97;48.89;101003.06;5129609;28;20028;-73
2022/09/08 08:08:38;;;;;;;0.30;0.30;;;;;;;16.17;48.46;100996.53;5110883;28;20019;-72
2022/09/08 08:11:12;;;;;;;0.40;0.40;;;;;;;16.14;48.34;100939.84;5129588;28;20045;-73
2022/09/08 08:14:07;;;;;;;0.30;0.30;;;;;;;16.62;48.19;100981.53;5111131;28;20027;-72
2022/09/08 08:16:52;;;;;;;0.22;0.22;;;;;;;17.01;47.45;100983.19;5129446;28;20023;-73
2022/09/08 08:19:42;;;;;;;0.30;0.30;;;;;;;17.36;46.43;100988.41;5110237;28;20130;-73
2022/09/08 08:22:31;;;;;;;0.50;0.50;;;;;;;17.55;45.76;101004.50;5129459;28;20028;-75
2022/09/08 08:25:17;;;;;;;0.30;0.30;;;;;;;17.25;45.38;100983.47;5099902;28;20051;-73
2022/09/08 08:28:27;;;;;;;0.30;0.30;;;;;;;17.24;45.19;100969.47;5110870;28;20035;-73
2022/09/08 08:31:24;;;;;;;0.30;0.30;;;;;;;17.13;43.95;100996.00;5083738;28;20036;-77
2022/09/08 08:33:56;;;;;;;0.28;0.28;;;;;;;16.94;44.28;100990.34;5110929;28;20030;-74
2022/09/08 08:36:25;;;;;;;0.20;0.20;;;;;;;16.90;44.68;100980.84;5129219;28;20028;-76
2022/09/08 08:39:16;;;;;;;0.20;0.20;;;;;;;17.32;44.81;100982.38;5128821;28;20020;-75
2022/09/08 08:41:45;;;;;;;0.30;0.30;;;;;;;18.07;43.02;101002.13;5129201;28;20043;-74
2022/09/08 08:44:28;;;;;;;0.30;0.30;;;;;;;17.99;42.51;100983.09;5128949;28;20028;-77
2022/09/08 08:47:10;;;;;;;0.20;0.20;;;;;;;18.08;42.87;101008.25;5110427;28;20059;-76
2022/09/08 08:49:53;;;;;;;0.20;0.20;;;;;;;18.23;41.52;100996.41;5129260;28;20019;-77
2022/09/08 08:52:40;;;;;;;0.20;0.20;;;;;;;18.23;41.40;100996.41;5128721;28;20470;-75
2022/09/08 08:55:21;;;;;;;0.20;0.20;;;;;;;17.99;41.98;101005.91;5128786;28;20027;-74
2022/09/08 08:57:52;;;;;;;0.30;0.30;;;;;;;18.03;42.35;100978.63;5128565;28;20026;-76
2022/09/08 09:00:23;;;;;;;0.40;0.40;;;;;;;18.10;42.18;100980.13;5128879;28;20031;-75
2022/09/08 09:03:10;;;;;;;1.30;1.20;;;;;;;18.37;41.26;100963.59;5128684;28;20020;-74
2022/09/08 09:05:46;;;;;;;0.30;0.30;;;;;;;18.40;40.84;100964.34;5110424;28;20023;-75
2022/09/08 09:08:49;;;;;;;0.30;0.30;;;;;;;18.44;41.32;100965.09;5109802;28;20028;-76
2022/09/08 09:11:53;;;;;;;0.30;0.30;;;;;;;18.78;40.88;100977.16;5128483;28;20023;-75
2022/09/08 09:14:39;;;;;;;0.20;0.20;;;;;;;19.09;40.41;100967.34;5128724;28;20482;-76
2022/09/08 09:17:32;;;;;;;0.20;0.20;;;;;;;19.50;39.75;100964.13;5128343;28;20042;-74
2022/09/08 09:20:03;;;;;;;0.30;0.30;;;;;;;19.63;38.60;100992.66;5110116;28;20479;-73
2022/09/08 09:22:52;;;;;;;0.30;0.30;;;;;;;19.60;38.54;100961.16;5128105;28;20392;-74
2022/09/08 09:25:36;;;;;;;0.25;0.25;;;;;;;19.48;38.99;100963.34;5127935;28;20064;-75
2022/09/08 09:28:23;;;;;;;0.20;0.20;;;;;;;19.48;39.32;100949.28;5128344;28;20051;-75
2022/09/08 09:31:19;;;;;;;0.30;0.30;;;;;;;19.57;39.28;100959.47;5128279;28;20027;-72
2022/09/08 09:34:00;;;;;;;0.30;0.30;;;;;;;19.66;39.21;100942.50;5128111;28;20034;-76
2022/09/08 09:36:44;;;;;;;0.20;0.20;;;;;;;19.96;39.31;100954.53;5109409;28;20386;-76
2022/09/08 09:39:28;;;;;;;0.20;0.20;;;;;;;20.42;37.54;100965.88;5109378;28;20035;-74
2022/09/08 09:42:14;;;;;;;0.20;0.20;;;;;;;20.30;37.49;100947.94;5128025;28;20023;-76
2022/09/08 09:45:05;;;;;;;0.20;0.20;;;;;;;20.35;37.06;100918.75;5109328;28;20027;-75
2022/09/08 09:47:36;;;;;;;0.20;0.20;;;;;;;20.40;37.15;100948.44;5127452;28;20103;-75
2022/09/08 09:50:37;;;;;;;0.30;0.30;;;;;;;20.22;37.67;100939.47;5127845;28;20049;-75
2022/09/08 09:53:41;;;;;;;0.30;0.30;;;;;;;19.90;38.46;100937.19;5127438;28;20098;-71
2022/09/08 09:56:27;;;;;;;0.30;0.30;;;;;;;19.85;38.53;100923.31;5127427;28;20034;-75
2022/09/08 09:59:34;;;;;;;0.20;0.20;;;;;;;20.03;38.36;100919.97;5127649;28;20375;-67
2022/09/08 10:02:56;;;;;;;0.20;0.20;;;;;;;20.09;38.06;100937.34;5116315;28;20035;-68
2022/09/08 10:05:28;;;;;;;0.20;0.20;;;;;;;20.77;36.19;100915.19;5044563;28;20036;-67
2022/09/08 10:08:31;;;;;;;0.30;0.30;;;;;;;20.90;35.74;100919.94;5027651;28;20030;-67
2022/09/08 10:11:27;;;;;;;0.20;0.20;;;;;;;21.09;35.85;100906.81;5043885;28;20068;-67
2022/09/08 10:14:05;;;;;;;0.20;0.20;;;;;;;21.40;35.36;100899.28;5044140;28;20452;-66
2022/09/08 10:16:56;;;;;;;0.20;0.20;;;;;;;21.63;34.69;100894.72;5042643;28;20038;-67
2022/09/08 10:19:25;;;;;;;0.20;0.20;;;;;;;21.84;34.58;100899.94;5043800;28;20104;-67
2022/09/08 10:22:09;;;;;;;0.15;0.15;;;;;;;22.00;33.67;100903.53;5043787;28;20021;-67
2022/09/08 10:24:34;;;;;;;0.20;0.20;;;;;;;21.58;33.42;100913.41;5043847;28;20034;-68
2022/09/08 10:27:25;;;;;;;0.20;0.20;;;;;;;21.22;34.23;100903.63;5043879;28;20048;-67
2022/09/08 10:30:31;;;;;;;0.20;0.20;;;;;;;20.97;34.64;100915.28;5043761;28;20048;-67
2022/09/08 10:33:34;;;;;;;0.20;0.20;;;;;;;20.74;35.09;100903.91;4968689;28;20023;-68
2022/09/08 10:36:10;;;;;;;0.20;0.20;;;;;;;20.92;35.24;100902.28;5012519;28;20088;-68
2022/09/08 10:38:47;;;;;;;0.20;0.20;;;;;;;20.98;34.62;100907.28;5063592;28;20029;-68
2022/09/08 10:41:19;;;;;;;0.20;0.20;;;;;;;20.78;35.53;100890.53;5063659;28;20036;-67
2022/09/08 10:43:53;;;;;;;;;;;;;;;20.90;34.99;100901.47;5064093;28;20036;-67
2022/09/08 10:46:34;;;;;;;0.20;0.20;;;;;;;20.87;34.68;100880.50;5061863;28;19912;-68
2022/09/08 10:49:31;;;;;;;0.20;0.20;;;;;;;20.74;35.25;100872.25;5062150;28;20055;-68
2022/09/08 10:51:57;;;;;;;0.20;0.20;;;;;;;20.90;36.14;100870.66;5002455;28;20038;-68
2022/09/08 10:54:35;;;;;;;0.20;0.20;;;;;;;21.25;34.83;100888.50;5004140;28;20072;-68
2022/09/08 10:57:18;;;;;;;0.20;0.20;;;;;;;21.03;34.96;100881.56;5003616;28;20100;-68
2022/09/08 11:00:18;;;;;;;0.20;0.20;;;;;;;21.06;34.69;100885.84;4987484;28;20034;-67
2022/09/08 11:02:49;;;;;;;0.20;0.20;;;;;;;20.87;35.07;100867.28;5003932;28;20135;-67
2022/09/08 11:05:34;;;;;;;2.10;1.27;;;;;;;21.17;34.95;100870.38;5004013;28;20034;-67
2022/09/08 11:08:18;;;;;;;0.20;0.20;;;;;;;21.45;34.61;100872.66;5040622;28;20036;-69
2022/09/08 11:11:09;;;;;;;0.20;0.20;;;;;;;21.39;34.80;100877.28;5043652;28;20053;-67
2022/09/08 11:13:59;;;;;;;0.20;0.20;;;;;;;21.71;33.95;100857.34;5043450;28;20030;-69
2022/09/08 11:16:59;;;;;;;0.30;0.30;;;;;;;21.86;33.79;100871.63;5043251;28;20029;-68
2022/09/08 11:19:36;;;;;;;0.20;0.20;;;;;;;21.89;34.34;100843.28;5043533;28;20034;-67
2022/09/08 11:22:02;;;;;;;0.20;0.20;;;;;;;22.44;33.67;100851.13;5042996;28;20200;-67
2022/09/08 11:24:36;;;;;;;0.20;0.20;;;;;;;21.93;34.07;100851.91;5042127;28;20041;-66
2022/09/08 11:27:30;;;;;;;0.20;0.20;;;;;;;20.59;35.59;100839.50;5042240;28;20099;-67
2022/09/08 11:30:10;;;;;;;0.20;0.20;;;;;;;19.58;37.64;100837.44;5124840;28;20028;-66
2022/09/08 11:32:51;;;;;;;0.20;0.20;;;;;;;19.23;38.59;100855.47;5107600;28;20024;-67
2022/09/08 11:36:02;;;;;;;0.20;0.20;;;;;;;18.65;39.89;100852.22;5126054;28;20016;-67
2022/09/08 11:38:45;;;;;;;0.30;0.30;;;;;;;18.24;40.42;100872.03;5104837;28;20043;-66
2022/09/08 11:41:31;;;;;;;0.20;0.20;;;;;;;18.02;40.97;100872.66;5126042;28;20058;-67
2022/09/08 11:44:23;;;;;;;0.40;0.40;;;;;;;17.73;41.83;100850.84;5107526;28;20023;-66
2022/09/08 11:47:05;;;;;;;0.30;0.30;;;;;;;17.62;42.24;100838.03;5105927;28;20092;-67
2022/09/08 11:49:36;;;;;;;0.20;0.20;;;;;;;17.55;42.74;100847.88;5126087;28;20019;-67
2022/09/08 11:52:27;;;;;;;0.30;0.30;;;;;;;17.83;42.19;100849.63;5126033;28;20019;-69
2022/09/08 11:55:07;;;;;;;0.30;0.30;;;;;;;17.62;42.62;100859.03;5125760;28;20111;-67
2022/09/08 11:57:51;;;;;;;0.30;0.30;;;;;;;17.68;42.73;100858.00;5107306;28;20114;-68
2022/09/08 12:00:22;;;;;;;0.30;0.30;;;;;;;17.61;42.65;100856.44;5125927;28;20034;-68
2022/09/08 12:03:13;;;;;;;0.20;0.20;;;;;;;17.58;42.85;100866.16;5125686;28;20019;-69